createdAt,value
2022-09-12T00:03:04.615Z,1.40
2022-09-12T00:08:07.502Z,1.50
2022-09-12T00:13:12.342Z,1.30
2022-09-12T00:18:17.529Z,1.33
2022-09-12T00:23:20.710Z,1.27
2022-09-12T00:28:24.987Z,1.30
2022-09-12T00:33:27.897Z,1.30
2022-09-12T00:38:30.772Z,1.20
2022-09-12T00:43:39.031Z,1.00
2022-09-12T00:48:48.361Z,1.20
2022-09-12T00:53:54.696Z,1.20
2022-09-12T00:59:03.354Z,1.10
2022-09-12T01:04:06.421Z,1.13
2022-09-12T01:09:10.620Z,1.10
2022-09-12T01:14:15.709Z,1.07
2022-09-12T01:19:38.015Z,0.97
2022-09-12T01:24:54.466Z,1.20
2022-09-12T01:30:23.672Z,1.00
2022-09-12T01:35:33.538Z,0.87
2022-09-12T01:40:49.069Z,0.97
2022-09-12T01:46:01.757Z,0.70
2022-09-12T01:51:11.275Z,0.90
2022-09-12T01:56:22.410Z,0.80
2022-09-12T02:01:29.556Z,0.97
2022-09-12T02:06:38.381Z,0.70
2022-09-12T02:11:44.513Z,0.97
2022-09-12T02:16:52.035Z,0.83
2022-09-12T02:21:59.513Z,0.80
2022-09-12T02:27:06.818Z,0.90
2022-09-12T02:32:17.042Z,1.10
2022-09-12T02:37:29.510Z,1.03
2022-09-12T02:42:32.433Z,1.00
2022-09-12T02:47:39.693Z,1.10
2022-09-12T02:52:45.031Z,1.20
2022-09-12T02:57:47.935Z,0.80
2022-09-12T03:03:09.347Z,0.77
2022-09-12T03:08:51.923Z,0.90
2022-09-12T03:14:07.198Z,0.80
2022-09-12T03:19:20.596Z,1.00
2022-09-12T03:24:31.220Z,0.70
2022-09-12T03:29:34.706Z,1.03
2022-09-12T03:34:37.636Z,0.80
2022-09-12T03:39:42.047Z,1.00
2022-09-12T03:44:45.021Z,0.90
2022-09-12T03:49:47.958Z,1.00
2022-09-12T03:54:52.252Z,1.00
2022-09-12T03:59:55.149Z,0.90
2022-09-12T04:04:58.036Z,0.90
2022-09-12T04:10:02.319Z,1.00
2022-09-12T04:15:07.264Z,1.03
2022-09-12T04:20:10.483Z,0.67
2022-09-12T04:25:15.307Z,0.80
2022-09-12T04:30:18.389Z,1.07
2022-09-12T04:35:21.317Z,1.30
2022-09-12T04:40:25.534Z,1.37
2022-09-12T04:45:28.600Z,1.30
2022-09-12T04:50:31.548Z,1.17
2022-09-12T04:55:36.818Z,1.10
2022-09-12T05:00:39.700Z,1.60
2022-09-12T05:05:42.592Z,0.80
2022-09-12T05:10:46.816Z,1.07
2022-09-12T05:15:56.111Z,0.90
2022-09-12T05:21:01.191Z,0.90
2022-09-12T05:26:07.161Z,0.90
2022-09-12T05:31:16.079Z,0.97
2022-09-12T05:36:21.377Z,1.00
2022-09-12T05:41:27.213Z,0.90
2022-09-12T05:46:31.389Z,1.00
2022-09-12T05:51:36.200Z,0.77
2022-09-12T05:56:41.841Z,0.70
2022-09-12T06:01:45.331Z,1.03
2022-09-12T06:06:48.797Z,0.87
2022-09-12T06:11:53.203Z,0.90
2022-09-12T06:16:56.310Z,1.00
2022-09-12T06:21:59.208Z,1.20
2022-09-12T06:27:03.465Z,0.70
2022-09-12T06:32:06.942Z,1.17
2022-09-12T06:37:09.867Z,1.10
2022-09-12T06:42:14.852Z,1.20
2022-09-12T06:47:25.997Z,1.27
2022-09-12T06:52:29.397Z,1.53
2022-09-12T06:57:36.345Z,1.50
2022-09-12T07:02:39.256Z,1.43
2022-09-12T07:07:42.154Z,1.40
2022-09-12T07:12:46.712Z,1.50
2022-09-12T07:17:49.561Z,1.80
2022-09-12T07:22:52.516Z,1.50
2022-09-12T07:27:56.725Z,1.60
2022-09-12T07:32:59.614Z,1.60
2022-09-12T07:38:02.967Z,1.53
2022-09-12T07:43:07.179Z,1.73
2022-09-12T07:48:10.227Z,1.67
2022-09-12T07:53:13.118Z,1.40
2022-09-12T07:58:17.344Z,2.00
2022-09-12T08:03:20.481Z,2.07
2022-09-12T08:08:23.330Z,1.77
2022-09-12T08:13:27.859Z,2.00
2022-09-12T08:18:32.661Z,1.83
2022-09-12T08:23:36.112Z,1.90
2022-09-12T08:28:41.297Z,2.10
2022-09-12T08:33:44.445Z,2.20
2022-09-12T08:38:48.731Z,1.95
2022-09-12T08:44:06.953Z,2.08
2022-09-12T08:49:13.723Z,2.08
2022-09-12T08:54:21.164Z,2.40
2022-09-12T08:59:25.675Z,2.10
2022-09-12T09:04:46.609Z,2.03
2022-09-12T09:10:10.143Z,2.08
2022-09-12T09:15:33.842Z,2.30
2022-09-12T09:20:43.615Z,2.42
2022-09-12T09:25:54.123Z,2.28
2022-09-12T09:30:59.106Z,1.92
2022-09-12T09:36:09.176Z,2.13
2022-09-12T09:41:23.846Z,2.38
2022-09-12T09:46:28.951Z,2.20
2022-09-12T09:51:36.943Z,2.55
2022-09-12T09:56:42.397Z,2.30
2022-09-12T10:01:49.140Z,2.03
2022-09-12T10:06:54.315Z,2.33
2022-09-12T10:11:58.656Z,2.58
2022-09-12T10:17:04.296Z,2.40
2022-09-12T10:22:08.448Z,2.60
2022-09-12T10:27:16.909Z,2.70
2022-09-12T10:32:31.333Z,2.67
2022-09-12T10:37:36.679Z,2.50
2022-09-12T10:42:49.261Z,2.45
2022-09-12T10:47:54.682Z,2.78
2022-09-12T10:53:15.648Z,2.72
2022-09-12T10:58:44.404Z,2.47
2022-09-12T11:04:20.073Z,2.53
2022-09-12T11:09:27.920Z,2.45
2022-09-12T11:14:47.604Z,2.25
2022-09-12T11:20:16.880Z,2.72
2022-09-12T11:25:32.163Z,2.58
2022-09-12T11:30:41.704Z,2.67
2022-09-12T11:35:54.586Z,2.40
2022-09-12T11:41:02.351Z,3.08
2022-09-12T11:46:15.626Z,2.58
2022-09-12T11:51:22.013Z,2.20
2022-09-12T11:56:25.455Z,2.40
2022-09-12T12:01:35.371Z,2.55
2022-09-12T12:06:50.768Z,2.28
2022-09-12T12:11:57.992Z,2.00
2022-09-12T12:17:01.452Z,2.50
2022-09-12T12:22:16.477Z,2.50
2022-09-12T12:27:26.488Z,2.30
2022-09-12T12:32:29.810Z,1.95
2022-09-12T12:38:05.024Z,1.98
2022-09-12T12:43:31.857Z,2.00
2022-09-12T12:48:57.234Z,1.88
2022-09-12T12:54:03.656Z,1.90
2022-09-12T12:59:17.015Z,1.65
2022-09-12T13:04:22.623Z,1.70
2022-09-12T13:09:32.016Z,1.67
2022-09-12T13:14:51.554Z,1.60
2022-09-12T13:20:26.693Z,1.90
2022-09-12T13:25:33.266Z,1.95
2022-09-12T13:30:38.106Z,2.15
2022-09-12T13:35:50.401Z,1.67
2022-09-12T13:41:11.659Z,1.70
2022-09-12T13:46:17.635Z,1.45
2022-09-12T13:51:25.292Z,1.60
2022-09-12T13:56:29.892Z,1.50
2022-09-12T14:01:40.144Z,2.05
2022-09-12T14:06:50.007Z,2.10
2022-09-12T14:11:55.770Z,2.05
2022-09-12T14:16:59.241Z,2.50
2022-09-12T14:22:02.279Z,2.03
2022-09-12T14:27:07.259Z,2.17
2022-09-12T14:32:23.011Z,1.98
2022-09-12T14:37:26.390Z,1.90
2022-09-12T14:42:33.241Z,1.90
2022-09-12T14:47:40.858Z,1.90
2022-09-12T14:52:44.824Z,1.67
2022-09-12T14:57:50.457Z,1.90
2022-09-12T15:02:54.522Z,1.88
2022-09-12T15:08:02.080Z,2.40
2022-09-12T15:13:14.193Z,2.35
2022-09-12T15:18:18.207Z,1.92
2022-09-12T15:23:35.396Z,2.22
2022-09-12T15:28:39.669Z,2.08
2022-09-12T15:33:42.575Z,2.08
2022-09-12T15:38:46.209Z,1.88
2022-09-12T15:43:51.109Z,1.80
2022-09-12T15:48:54.014Z,2.20
2022-09-12T15:53:56.922Z,2.58
2022-09-12T15:59:01.170Z,1.73
2022-09-12T16:04:04.604Z,1.90
2022-09-12T16:09:07.587Z,2.45
2022-09-12T16:14:15.493Z,1.60
2022-09-12T16:19:18.433Z,1.92
2022-09-12T16:24:21.527Z,1.75
2022-09-12T16:29:25.798Z,1.77
2022-09-12T16:34:28.720Z,1.70
2022-09-12T16:39:31.618Z,2.10
2022-09-12T16:44:35.869Z,1.60
2022-09-12T16:49:38.748Z,1.70
2022-09-12T16:54:41.679Z,1.90
2022-09-12T16:59:45.934Z,1.67
2022-09-12T17:04:48.858Z,1.73
2022-09-12T17:09:52.011Z,1.40
2022-09-12T17:14:56.239Z,1.70
2022-09-12T17:19:59.130Z,1.50
2022-09-12T17:25:02.030Z,1.52
2022-09-12T17:30:07.644Z,2.03
2022-09-12T17:35:10.979Z,1.70
2022-09-12T17:40:13.990Z,1.35
2022-09-12T17:45:18.729Z,1.60
2022-09-12T17:50:31.813Z,1.80
2022-09-12T17:55:36.390Z,1.60
2022-09-12T18:00:58.435Z,1.52
2022-09-12T18:06:01.463Z,1.42
2022-09-12T18:11:05.724Z,1.40
2022-09-12T18:16:12.276Z,1.38
2022-09-12T18:21:15.290Z,1.40
2022-09-12T18:26:18.428Z,1.40
2022-09-12T18:31:24.560Z,1.50
2022-09-12T18:36:28.011Z,1.40
2022-09-12T18:41:31.016Z,1.33
2022-09-12T18:46:36.423Z,1.30
2022-09-12T18:51:41.716Z,1.25
2022-09-12T18:56:45.738Z,1.52
2022-09-12T19:01:50.283Z,1.27
2022-09-12T19:06:53.231Z,1.40
2022-09-12T19:11:56.157Z,1.48
2022-09-12T19:17:00.415Z,1.42
2022-09-12T19:22:04.337Z,1.65
2022-09-12T19:27:07.683Z,1.30
2022-09-12T19:32:11.936Z,1.25
2022-09-12T19:37:14.819Z,1.52
2022-09-12T19:42:17.664Z,1.40
2022-09-12T19:47:22.250Z,1.30
2022-09-12T19:52:25.183Z,1.60
2022-09-12T19:57:28.053Z,1.63
2022-09-12T20:02:32.322Z,1.77
2022-09-12T20:07:35.201Z,1.40
2022-09-12T20:12:39.849Z,1.50
2022-09-12T20:17:44.174Z,1.52
2022-09-12T20:22:51.320Z,1.77
2022-09-12T20:27:59.437Z,1.25
2022-09-12T20:33:04.378Z,1.63
2022-09-12T20:38:07.280Z,1.65
2022-09-12T20:43:10.157Z,1.50
2022-09-12T20:48:14.374Z,1.50
2022-09-12T20:53:17.419Z,1.65
2022-09-12T20:58:21.456Z,1.13
2022-09-12T21:03:26.364Z,1.30
2022-09-12T21:08:29.341Z,1.30
2022-09-12T21:13:32.444Z,1.80
2022-09-12T21:18:37.326Z,1.77
2022-09-12T21:23:41.394Z,1.60
2022-09-12T21:28:44.488Z,1.40
2022-09-12T21:33:48.910Z,1.50
2022-09-12T21:38:51.933Z,1.67
2022-09-12T21:43:54.828Z,1.85
2022-09-12T21:48:59.053Z,1.50
2022-09-12T21:54:01.924Z,1.50
2022-09-12T21:59:05.049Z,1.43
2022-09-12T22:04:10.556Z,1.30
2022-09-12T22:09:14.054Z,1.60
2022-09-12T22:14:17.581Z,1.30
2022-09-12T22:19:21.858Z,1.47
2022-09-12T22:24:30.771Z,1.50
2022-09-12T22:29:34.306Z,1.47
2022-09-12T22:34:38.588Z,1.30
2022-09-12T22:39:41.722Z,1.43
2022-09-12T22:44:44.628Z,1.50
2022-09-12T22:49:48.875Z,1.33
2022-09-12T22:54:51.849Z,1.53
2022-09-12T22:59:54.741Z,1.73
2022-09-12T23:04:59.087Z,1.57
2022-09-12T23:10:01.963Z,1.70
2022-09-12T23:15:05.801Z,1.30
2022-09-12T23:20:10.674Z,1.50
2022-09-12T23:25:13.754Z,1.27
2022-09-12T23:30:17.748Z,1.43
2022-09-12T23:35:21.960Z,1.10
2022-09-12T23:40:24.884Z,1.43
2022-09-12T23:45:27.813Z,1.40
2022-09-12T23:50:32.056Z,1.50
2022-09-12T23:55:34.910Z,1.40
